L Essor — FTPB — position and weather

sailwx.info

Track history (hours):
 
Tides and Currents Weather Stations Pressure Air Temp Water Temp Dewpoint Dewpoint Depression Visibility Wind Speed Wind Dir Waves Ship Positions

L Essor

Last reported at 2018-Feb-13 16:03 UTC. Time now 2018-Feb-25 23:54 UTC.
Position N 43°19' E 005°20'.
Warning: this ship's position is 12 days out of date.

Length 23 m; draft 2.2 m.

Type: Tug. MMSI: 227677160.

Date/timePositionNaut miles runAvg speedWind from/ knotsBaromVisibWave heightAir tempDewpointWater temp
2018-Feb-13 16:03N 43°19' E 005°20'1 8.7
2018-Feb-13 15:58N 43°18' E 005°21'0 0.6
2018-Feb-13 15:29N 43°18' E 005°21'2 2.7
2018-Feb-13 14:53N 43°18' E 005°19'11 5.1
2018-Feb-13 12:47N 43°19' E 005°04'1 5.2
2018-Feb-13 12:30N 43°19' E 005°02'2 5.0
2018-Feb-13 12:00N 43°20' E 004°60'2 4.9
2018-Feb-13 11:30N 43°22' E 004°57'3 5.0
2018-Feb-13 10:52N 43°24' E 004°54'2 5.2
2018-Feb-13 10:29N 43°26' E 004°52'1 1.0
2018-Feb-13 09:12N 43°27' E 004°51'4 8.8
2018-Feb-13 08:47N 43°24' E 004°54'3 9.6
2018-Feb-13 08:30N 43°23' E 004°58'1 2.4
2018-Feb-13 08:00N 43°24' E 004°59'0 0.0
2018-Feb-13 07:30N 43°24' E 004°59'0 0.0
2018-Feb-13 07:00N 43°24' E 004°59'0 0.0
2018-Feb-13 06:30N 43°24' E 004°59'0 0.0
2018-Feb-13 05:58N 43°24' E 004°59'0 0.0
2018-Feb-13 05:30N 43°24' E 004°59'0 0.0
2018-Feb-13 05:00N 43°24' E 004°59'0 0.0
2018-Feb-13 04:28N 43°24' E 004°59'0 0.0
2018-Feb-13 04:00N 43°24' E 004°59'0 0.0
2018-Feb-13 03:30N 43°24' E 004°59'0 0.0
2018-Feb-13 03:00N 43°24' E 004°59'0 0.0
2018-Feb-13 02:30N 43°24' E 004°59'0 0.0
2018-Feb-13 02:00N 43°24' E 004°59'0 0.0
2018-Feb-13 01:30N 43°24' E 004°59'0 0.0
2018-Feb-13 01:00N 43°24' E 004°59'0 0.0
2018-Feb-13 00:30N 43°24' E 004°59'0 0.0
2018-Feb-13 00:00N 43°24' E 004°59'0 0.0
2018-Feb-12 23:30N 43°24' E 004°59'0 0.0
2018-Feb-12 23:00N 43°24' E 004°59'0 0.0
2018-Feb-12 22:30N 43°24' E 004°59'0 0.0
2018-Feb-12 21:59N 43°24' E 004°59'0 0.0
2018-Feb-12 21:30N 43°24' E 004°59'0 0.0
2018-Feb-12 21:00N 43°24' E 004°59'0 0.0
2018-Feb-12 20:30N 43°24' E 004°59'0 0.0
2018-Feb-12 20:00N 43°24' E 004°59'0 0.0
2018-Feb-12 19:30N 43°24' E 004°59'0 0.0
2018-Feb-12 18:57N 43°24' E 004°59'0 0.0
2018-Feb-12 18:30N 43°24' E 004°59'0 0.0
2018-Feb-12 18:00N 43°24' E 004°59'0 0.0
2018-Feb-12 17:30N 43°24' E 004°59'0 0.0
2018-Feb-12 17:00N 43°24' E 004°59'0 0.0
2018-Feb-12 16:30N 43°24' E 004°59'0 0.0
2018-Feb-12 16:00N 43°24' E 004°59'0 0.0
2018-Feb-12 15:30N 43°24' E 004°59'0 0.0
2018-Feb-12 15:00N 43°24' E 004°59'0 0.0
2018-Feb-12 14:30N 43°24' E 004°59'0 0.0
2018-Feb-12 14:00N 43°24' E 004°59'0 0.0
2018-Feb-12 13:30N 43°24' E 004°59'0 0.0
2018-Feb-12 13:00N 43°24' E 004°59'0 0.0
2018-Feb-12 12:30N 43°24' E 004°59'0 0.0
2018-Feb-12 12:00N 43°24' E 004°59'0 0.0
2018-Feb-12 11:30N 43°24' E 004°59'0 0.0
2018-Feb-12 11:00N 43°24' E 004°59'0 0.0
2018-Feb-12 10:30N 43°24' E 004°59'0 0.0
2018-Feb-12 10:00N 43°24' E 004°59'0 0.0
2018-Feb-12 09:30N 43°24' E 004°59'0 0.0
2018-Feb-12 09:00N 43°24' E 004°59'0 0.0
2018-Feb-12 08:30N 43°24' E 004°59'0 0.0
2018-Feb-12 08:00N 43°24' E 004°59'0 0.0
2018-Feb-12 07:30N 43°24' E 004°59'0 0.0
2018-Feb-12 07:00N 43°24' E 004°59'0 0.0
2018-Feb-12 06:30N 43°24' E 004°59'0 0.0
2018-Feb-12 06:00N 43°24' E 004°59'0 0.0
2018-Feb-12 05:30N 43°24' E 004°59'0 0.0
2018-Feb-12 05:00N 43°24' E 004°59'0 0.0
2018-Feb-12 04:30N 43°24' E 004°59'0 0.0
2018-Feb-12 04:00N 43°24' E 004°59'0 0.0
2018-Feb-12 03:30N 43°24' E 004°59'0 0.0
2018-Feb-12 03:00N 43°24' E 004°59'0 0.0
2018-Feb-12 02:30N 43°24' E 004°59'0 0.0
2018-Feb-12 01:59N 43°24' E 004°59'0 0.0
2018-Feb-12 01:30N 43°24' E 004°59'0 0.0
2018-Feb-12 00:58N 43°24' E 004°59'0 0.0
2018-Feb-12 00:30N 43°24' E 004°59'0 0.0
2018-Feb-12 00:00N 43°24' E 004°59'0 0.0
2018-Feb-11 23:30N 43°24' E 004°59'0 0.0
2018-Feb-11 23:00N 43°24' E 004°59'0 0.0
2018-Feb-11 22:30N 43°24' E 004°59'0 0.0
2018-Feb-11 22:00N 43°24' E 004°59'0 0.0
2018-Feb-11 21:30N 43°24' E 004°59'0 0.0
2018-Feb-11 21:00N 43°24' E 004°59'0 0.0
2018-Feb-11 20:30N 43°24' E 004°59'0 0.0
2018-Feb-11 20:00N 43°24' E 004°59'0 0.0
2018-Feb-11 19:30N 43°24' E 004°59'0 0.0
2018-Feb-11 19:00N 43°24' E 004°59'0 0.0
2018-Feb-11 18:30N 43°24' E 004°59'0 0.0
2018-Feb-11 17:59N 43°24' E 004°59'0 0.0
2018-Feb-11 17:30N 43°24' E 004°59'0 0.0
2018-Feb-11 17:00N 43°24' E 004°59'0 0.0
2018-Feb-11 16:30N 43°24' E 004°59'0 0.0
2018-Feb-11 16:00N 43°24' E 004°59'0 0.0
2018-Feb-11 15:30N 43°24' E 004°59'0 0.0
2018-Feb-11 15:00N 43°24' E 004°59'0 0.0
2018-Feb-11 14:30N 43°24' E 004°59'0 0.0
2018-Feb-11 14:00N 43°24' E 004°59'0 0.0
2018-Feb-11 13:30N 43°24' E 004°59'0 0.0
2018-Feb-11 13:00N 43°24' E 004°59'0 0.0
2018-Feb-11 12:30N 43°24' E 004°59'0 0.0
2018-Feb-11 12:00N 43°24' E 004°59'0 0.0
2018-Feb-11 11:30N 43°24' E 004°59'0 0.0
2018-Feb-11 11:00N 43°24' E 004°59'0 0.0
2018-Feb-11 10:30N 43°24' E 004°59'0 0.0
2018-Feb-11 09:59N 43°24' E 004°59'0 0.0
2018-Feb-11 09:30N 43°24' E 004°59'0 0.0
2018-Feb-11 08:59N 43°24' E 004°59'0 0.0
2018-Feb-11 08:30N 43°24' E 004°59'0 0.0
2018-Feb-11 08:00N 43°24' E 004°59'0 0.0
2018-Feb-11 07:30N 43°24' E 004°59'0 0.0
2018-Feb-11 07:00N 43°24' E 004°59'0 0.0
2018-Feb-11 06:30N 43°24' E 004°59'0 0.0
2018-Feb-11 06:00N 43°24' E 004°59'0 0.0
2018-Feb-11 05:30N 43°24' E 004°59'0 0.0
2018-Feb-11 05:00N 43°24' E 004°59'0 0.0
2018-Feb-11 04:30N 43°24' E 004°59'0 0.0
2018-Feb-11 04:00N 43°24' E 004°59'0 0.0
2018-Feb-11 03:30N 43°24' E 004°59'0 0.0
2018-Feb-11 03:00N 43°24' E 004°59'0 0.0
2018-Feb-11 02:30N 43°24' E 004°59'0 0.0
2018-Feb-11 02:00N 43°24' E 004°59'0 0.0
2018-Feb-11 01:29N 43°24' E 004°59'0 0.0
2018-Feb-11 01:00N 43°24' E 004°59'0 0.0
2018-Feb-11 00:30N 43°24' E 004°59'0 0.0
2018-Feb-11 00:00N 43°24' E 004°59'0 0.0
2018-Feb-10 23:30N 43°24' E 004°59'0 0.0
2018-Feb-10 23:00N 43°24' E 004°59'0 0.0
2018-Feb-10 22:30N 43°24' E 004°59'0 0.0
2018-Feb-10 22:00N 43°24' E 004°59'0 0.0
2018-Feb-10 21:30N 43°24' E 004°59'0 0.0
2018-Feb-10 21:00N 43°24' E 004°59'0 0.0
2018-Feb-10 20:30N 43°24' E 004°59'0 0.0
2018-Feb-10 20:00N 43°24' E 004°59'0 0.0
2018-Feb-10 19:30N 43°24' E 004°59'0 0.0
2018-Feb-10 18:59N 43°24' E 004°59'0 0.0
2018-Feb-10 18:30N 43°24' E 004°59'0 0.0
2018-Feb-10 18:00N 43°24' E 004°59'0 0.0
2018-Feb-10 17:30N 43°24' E 004°59'0 0.0
2018-Feb-10 17:00N 43°24' E 004°59'0 0.0
2018-Feb-10 16:30N 43°24' E 004°59'0 0.0
2018-Feb-10 16:00N 43°24' E 004°59'0 0.0
2018-Feb-10 15:30N 43°24' E 004°59'0 0.0
2018-Feb-10 15:00N 43°24' E 004°59'0 0.0
2018-Feb-10 14:30N 43°24' E 004°59'0 0.0
2018-Feb-10 14:00N 43°24' E 004°59'0 0.0
2018-Feb-10 13:30N 43°24' E 004°59'0 0.0
2018-Feb-10 13:00N 43°24' E 004°59'0 0.0
2018-Feb-10 12:30N 43°24' E 004°59'0 0.0
2018-Feb-10 12:00N 43°24' E 004°59'0 0.0
2018-Feb-10 11:30N 43°24' E 004°59'0 0.0
2018-Feb-10 11:00N 43°24' E 004°59'0 0.0
2018-Feb-10 10:30N 43°24' E 004°59'0 0.0
2018-Feb-10 10:00N 43°24' E 004°59'0 0.0
2018-Feb-10 09:30N 43°24' E 004°59'0 0.0
2018-Feb-10 09:00N 43°24' E 004°59'0 0.0
2018-Feb-10 08:30N 43°24' E 004°59'0 0.0
2018-Feb-10 08:00N 43°24' E 004°59'0 0.0
2018-Feb-10 07:30N 43°24' E 004°59'0 0.0
2018-Feb-10 07:00N 43°24' E 004°59'0 0.0
2018-Feb-10 06:30N 43°24' E 004°59'0 0.0
2018-Feb-10 06:00N 43°24' E 004°59'0 0.0
2018-Feb-10 05:30N 43°24' E 004°59'0 0.0
2018-Feb-10 05:00N 43°24' E 004°59'0 0.0
2018-Feb-10 04:30N 43°24' E 004°59'0 0.0
2018-Feb-10 03:58N 43°24' E 004°59'0 0.0
2018-Feb-10 03:30N 43°24' E 004°59'0 0.0
2018-Feb-10 03:00N 43°24' E 004°59'0 0.0
2018-Feb-10 02:30N 43°24' E 004°59'0 0.0
2018-Feb-10 02:00N 43°24' E 004°59'0 0.0
2018-Feb-10 01:30N 43°24' E 004°59'0 0.0
2018-Feb-10 01:00N 43°24' E 004°59'0 0.0
2018-Feb-10 00:30N 43°24' E 004°59'0 0.0
2018-Feb-10 00:00N 43°24' E 004°59'0 0.0
2018-Feb-09 23:30N 43°24' E 004°59'0 0.0
2018-Feb-09 23:00N 43°24' E 004°59'0 0.0
2018-Feb-09 22:45N 43°24' E 004°59'0 0.0
2018-Feb-09 22:00N 43°24' E 004°59'0 0.0
2018-Feb-09 21:30N 43°24' E 004°59'0 0.0
2018-Feb-09 21:00N 43°24' E 004°59'0 0.0
2018-Feb-09 20:30N 43°24' E 004°59'0 0.0
2018-Feb-09 20:00N 43°24' E 004°59'45 3.6
2018-Feb-09 07:30N 43°06' E 005°55'1 0.8
2018-Feb-09 06:30N 43°07' E 005°54'44 6.8
2018-Feb-09 00:00N 43°24' E 004°59'0 0.0
2018-Feb-08 22:30N 43°24' E 004°59'0 0.0
2018-Feb-08 21:30N 43°24' E 004°59'0 0.0
2018-Feb-08 20:00N 43°24' E 004°59'0 0.0
2018-Feb-08 19:30N 43°24' E 004°59'0 0.0
2018-Feb-08 19:00N 43°24' E 004°59'0 0.0
2018-Feb-08 18:30N 43°24' E 004°59'0 0.0
2018-Feb-08 16:30N 43°24' E 004°59'0 0.0
2018-Feb-08 14:00N 43°24' E 004°59'0 0.0
2018-Feb-08 13:30N 43°24' E 004°59'0 0.0
2018-Feb-08 12:00N 43°24' E 004°59'0 0.0
2018-Feb-08 10:00N 43°24' E 004°59'0 0.0
2018-Feb-08 09:00N 43°24' E 004°59'0 0.0
2018-Feb-08 08:00N 43°24' E 004°59'0 0.0
2018-Feb-08 07:30N 43°24' E 004°59'0 0.0
2018-Feb-08 06:00N 43°24' E 004°59'0 0.0
2018-Feb-08 05:30N 43°24' E 004°59'0 0.0
2018-Feb-08 05:00N 43°24' E 004°59'0 0.0
2018-Feb-08 04:00N 43°24' E 004°59'0 0.0
2018-Feb-08 03:00N 43°24' E 004°59'0 0.0
2018-Feb-08 02:30N 43°24' E 004°59'0 0.0
2018-Feb-08 01:30N 43°24' E 004°59'0 0.0
2018-Feb-08 00:59N 43°24' E 004°59'0 0.0
2018-Feb-08 00:30N 43°24' E 004°59'0 0.0
2018-Feb-08 00:00N 43°24' E 004°59'0 0.0
2018-Feb-07 23:30N 43°24' E 004°59'0 0.0
2018-Feb-07 23:00N 43°24' E 004°59'0 0.0
2018-Feb-07 22:30N 43°24' E 004°59'0 0.0
2018-Feb-07 22:00N 43°24' E 004°59'0 0.0
2018-Feb-07 21:31N 43°24' E 004°59'0 0.0
2018-Feb-07 09:30N 43°24' E 004°59'0 0.0
2018-Feb-07 09:00N 43°24' E 004°59'0 0.0
2018-Feb-07 08:30N 43°24' E 004°59'0 0.0
2018-Feb-07 08:00N 43°24' E 004°59'0 0.0
2018-Feb-07 07:30N 43°24' E 004°59'0 0.0
2018-Feb-07 06:59N 43°24' E 004°59'0 0.0
2018-Feb-07 06:30N 43°24' E 004°59'0 0.0
2018-Feb-07 06:00N 43°24' E 004°59'0 0.0
2018-Feb-07 05:30N 43°24' E 004°59'0 0.0
2018-Feb-07 05:00N 43°24' E 004°59'0 0.0
2018-Feb-07 04:29N 43°24' E 004°59'0 0.0
2018-Feb-07 04:00N 43°24' E 004°59'0 0.0
2018-Feb-07 03:30N 43°24' E 004°59'0 0.0
2018-Feb-07 03:00N 43°24' E 004°59'0 0.0
2018-Feb-07 02:30N 43°24' E 004°59'0 0.0
2018-Feb-07 02:00N 43°24' E 004°59'0 0.0
2018-Feb-07 01:30N 43°24' E 004°59'0 0.0
2018-Feb-07 01:00N 43°24' E 004°59'0 0.0
2018-Feb-07 00:30N 43°24' E 004°59'0 0.0
2018-Feb-07 00:00N 43°24' E 004°59'0 0.0
2018-Feb-06 23:30N 43°24' E 004°59'0 0.0
2018-Feb-06 23:00N 43°24' E 004°59'0 0.0
2018-Feb-06 22:30N 43°24' E 004°59'0 0.0
2018-Feb-06 22:00N 43°24' E 004°59'0 0.0
2018-Feb-06 21:30N 43°24' E 004°59'0 0.0
2018-Feb-06 21:00N 43°24' E 004°59'0 0.0
2018-Feb-06 20:30N 43°24' E 004°59'0 0.0
2018-Feb-06 19:59N 43°24' E 004°59'0 0.0
2018-Feb-06 19:30N 43°24' E 004°59'0 0.0
2018-Feb-06 18:59N 43°24' E 004°59'0 0.0
2018-Feb-06 18:30N 43°24' E 004°59'0 0.0
2018-Feb-06 18:00N 43°24' E 004°59'0 0.0
2018-Feb-06 17:30N 43°24' E 004°59'0 0.0
2018-Feb-06 17:00N 43°24' E 004°59'0 0.0
2018-Feb-06 16:30N 43°24' E 004°59'0 0.0
2018-Feb-06 16:00N 43°24' E 004°59'0 0.0
2018-Feb-06 15:30N 43°24' E 004°59'0 0.0
2018-Feb-06 15:00N 43°24' E 004°59'0 0.0
2018-Feb-06 14:30N 43°24' E 004°59'0 0.0
2018-Feb-06 14:00N 43°24' E 004°59'0 0.0
2018-Feb-06 13:30N 43°24' E 004°59'0 0.0
2018-Feb-06 13:00N 43°24' E 004°59'0 0.0
2018-Feb-06 12:30N 43°24' E 004°59'0 0.0
2018-Feb-06 11:59N 43°24' E 004°59'0 0.0
2018-Feb-06 11:30N 43°24' E 004°59'0 0.0
2018-Feb-06 11:00N 43°24' E 004°59'0 0.0
2018-Feb-06 10:29N 43°24' E 004°59'0 0.0
2018-Feb-06 10:00N 43°24' E 004°59'0 0.0
2018-Feb-06 09:30N 43°24' E 004°59'0 0.0
2018-Feb-06 09:00N 43°24' E 004°59'0 0.0
2018-Feb-06 08:30N 43°24' E 004°59'0 0.0
2018-Feb-06 08:00N 43°24' E 004°59'0 0.0
2018-Feb-06 07:29N 43°24' E 004°59'0 0.0
2018-Feb-06 07:00N 43°24' E 004°59'0 0.0
2018-Feb-06 06:30N 43°24' E 004°59'0 0.0
2018-Feb-06 06:00N 43°24' E 004°59'0 0.0
2018-Feb-06 05:30N 43°24' E 004°59'0 0.0
2018-Feb-06 05:00N 43°24' E 004°59'0 0.0
2018-Feb-06 04:30N 43°24' E 004°59'0 0.0
2018-Feb-06 04:00N 43°24' E 004°59'0 0.0
2018-Feb-06 03:30N 43°24' E 004°59'0 0.0
2018-Feb-06 03:00N 43°24' E 004°59'0 0.0
2018-Feb-06 02:30N 43°24' E 004°59'0 0.0
2018-Feb-06 02:00N 43°24' E 004°59'0 0.0
2018-Feb-06 01:30N 43°24' E 004°59'0 0.0
2018-Feb-06 01:00N 43°24' E 004°59'0 0.0
2018-Feb-06 00:30N 43°24' E 004°59'0 0.0
2018-Feb-06 00:00N 43°24' E 004°59'0 0.0
2018-Feb-05 23:30N 43°24' E 004°59'0 0.0
2018-Feb-05 23:00N 43°24' E 004°59'0 0.0
2018-Feb-05 22:30N 43°24' E 004°59'0 0.0
2018-Feb-05 22:00N 43°24' E 004°59'0 0.0
2018-Feb-05 21:30N 43°24' E 004°59'0 0.0
2018-Feb-05 21:00N 43°24' E 004°59'0 0.0
2018-Feb-05 20:30N 43°24' E 004°59'0 0.0
2018-Feb-05 20:00N 43°24' E 004°59'0 0.0
2018-Feb-05 19:30N 43°24' E 004°59'0 0.0
2018-Feb-05 19:00N 43°24' E 004°59'0 0.0
2018-Feb-05 18:30N 43°24' E 004°59'0 0.0
2018-Feb-05 18:00N 43°24' E 004°59'0 0.0
2018-Feb-05 17:30N 43°24' E 004°59'0 0.0
2018-Feb-05 17:00N 43°24' E 004°59'0 0.0
2018-Feb-05 16:30N 43°24' E 004°59'0 0.0
2018-Feb-05 16:00N 43°24' E 004°59'0 0.0
2018-Feb-05 15:30N 43°24' E 004°59'0 0.0
2018-Feb-05 15:00N 43°24' E 004°59'0 0.0
2018-Feb-05 14:30N 43°24' E 004°59'0 0.0
2018-Feb-05 14:00N 43°24' E 004°59'0 0.0
2018-Feb-05 13:30N 43°24' E 004°59'0 0.0
2018-Feb-05 13:00N 43°24' E 004°59'0 0.0
2018-Feb-05 12:30N 43°24' E 004°59'0 0.0
2018-Feb-05 12:00N 43°24' E 004°59'0 0.0
2018-Feb-05 11:30N 43°24' E 004°59'0 0.0
2018-Feb-05 11:00N 43°24' E 004°59'0 0.0
2018-Feb-05 10:30N 43°24' E 004°59'0 0.0
2018-Feb-05 10:00N 43°24' E 004°59'0 0.0
2018-Feb-05 09:30N 43°24' E 004°59'0 0.0
2018-Feb-05 09:00N 43°24' E 004°59'0 0.0
2018-Feb-05 08:30N 43°24' E 004°59'0 0.0
2018-Feb-05 08:00N 43°24' E 004°59'0 0.0
2018-Feb-05 07:30N 43°24' E 004°59'0 0.0
2018-Feb-05 06:59N 43°24' E 004°59'0 0.0
2018-Feb-05 06:30N 43°24' E 004°59'0 0.0
2018-Feb-05 05:30N 43°24' E 004°59'0 0.0
2018-Feb-05 05:00N 43°24' E 004°59'0 0.0
2018-Feb-05 04:30N 43°24' E 004°59'0 0.0
2018-Feb-05 04:00N 43°24' E 004°59'0 0.0
2018-Feb-05 03:30N 43°24' E 004°59'0 0.0
2018-Feb-05 03:00N 43°24' E 004°59'0 0.0
2018-Feb-05 02:30N 43°24' E 004°59'0 0.0
2018-Feb-05 02:00N 43°24' E 004°59'0 0.0
2018-Feb-05 01:30N 43°24' E 004°59'0 0.0
2018-Feb-05 01:00N 43°24' E 004°59'5 7.7
2018-Feb-05 00:22N 43°25' E 004°53'2 2.1
2018-Feb-04 23:23N 43°27' E 004°51'1 2.0
2018-Feb-04 22:57N 43°26' E 004°52'2 2.9
2018-Feb-04 22:06N 43°24' E 004°54'0 4.2
2018-Feb-04 22:00N 43°24' E 004°54'2 4.2
2018-Feb-04 21:30N 43°23' E 004°57'2 4.0
2018-Feb-04 21:00N 43°22' E 004°59'4 0.3
2018-Feb-04 05:26N 43°19' E 005°03'4 9.9
2018-Feb-04 05:00N 43°22' E 004°60'2 4.0
2018-Feb-04 04:30N 43°24' E 004°59'0 0.0
2018-Feb-04 04:00N 43°24' E 004°59'0 0.0
2018-Feb-04 03:30N 43°24' E 004°59'0 0.0
2018-Feb-04 03:00N 43°24' E 004°59'0 0.0
2018-Feb-04 02:30N 43°24' E 004°59'0 0.0
2018-Feb-04 01:59N 43°24' E 004°59'0 0.0
2018-Feb-04 01:30N 43°24' E 004°59'0 0.0
2018-Feb-04 01:00N 43°24' E 004°59'0 0.0
2018-Feb-04 00:30N 43°24' E 004°59'0 0.0
2018-Feb-04 00:00N 43°24' E 004°59'0 0.0
2018-Feb-03 23:30N 43°24' E 004°59'0 0.0
2018-Feb-03 23:00N 43°24' E 004°59'0 0.0
2018-Feb-03 22:30N 43°24' E 004°59'0 0.0
2018-Feb-03 22:00N 43°24' E 004°59'0 0.0
2018-Feb-03 21:30N 43°24' E 004°59'0 0.0
2018-Feb-03 21:00N 43°24' E 004°59'0 0.0
2018-Feb-03 20:30N 43°24' E 004°59'0 0.0
2018-Feb-03 20:00N 43°24' E 004°59'0 0.0
2018-Feb-03 18:30N 43°24' E 004°59'0 0.0
2018-Feb-03 18:00N 43°24' E 004°59'0 0.0
2018-Feb-03 17:30N 43°24' E 004°59'0 0.0
2018-Feb-03 17:00N 43°24' E 004°59'  
Track history (hours):
 
Tides and Currents Weather Stations Pressure Air Temp Water Temp Dewpoint Dewpoint Depression Visibility Wind Speed Wind Dir Waves Ship Positions

L Essor

Last reported at 2018-Feb-13 16:03 UTC. Time now 2018-Feb-25 23:54 UTC.
Position N 43°19' E 005°20'.
Warning: this ship's position is 12 days out of date.

Length 23 m; draft 2.2 m.

Type: Tug. MMSI: 227677160.

Date/timePositionNaut miles runAvg speedWind from/ knotsBaromVisibWave heightAir tempDewpointWater temp
2018-Feb-13 16:03N 43°19' E 005°20'1 8.7
2018-Feb-13 15:58N 43°18' E 005°21'0 0.6
2018-Feb-13 15:29N 43°18' E 005°21'2 2.7
2018-Feb-13 14:53N 43°18' E 005°19'11 5.1
2018-Feb-13 12:47N 43°19' E 005°04'1 5.2
2018-Feb-13 12:30N 43°19' E 005°02'2 5.0
2018-Feb-13 12:00N 43°20' E 004°60'2 4.9
2018-Feb-13 11:30N 43°22' E 004°57'3 5.0
2018-Feb-13 10:52N 43°24' E 004°54'2 5.2
2018-Feb-13 10:29N 43°26' E 004°52'1 1.0
2018-Feb-13 09:12N 43°27' E 004°51'4 8.8
2018-Feb-13 08:47N 43°24' E 004°54'3 9.6
2018-Feb-13 08:30N 43°23' E 004°58'1 2.4
2018-Feb-13 08:00N 43°24' E 004°59'0 0.0
2018-Feb-13 07:30N 43°24' E 004°59'0 0.0
2018-Feb-13 07:00N 43°24' E 004°59'0 0.0
2018-Feb-13 06:30N 43°24' E 004°59'0 0.0
2018-Feb-13 05:58N 43°24' E 004°59'0 0.0
2018-Feb-13 05:30N 43°24' E 004°59'0 0.0
2018-Feb-13 05:00N 43°24' E 004°59'0 0.0
2018-Feb-13 04:28N 43°24' E 004°59'0 0.0
2018-Feb-13 04:00N 43°24' E 004°59'0 0.0
2018-Feb-13 03:30N 43°24' E 004°59'0 0.0
2018-Feb-13 03:00N 43°24' E 004°59'0 0.0
2018-Feb-13 02:30N 43°24' E 004°59'0 0.0
2018-Feb-13 02:00N 43°24' E 004°59'0 0.0
2018-Feb-13 01:30N 43°24' E 004°59'0 0.0
2018-Feb-13 01:00N 43°24' E 004°59'0 0.0
2018-Feb-13 00:30N 43°24' E 004°59'0 0.0
2018-Feb-13 00:00N 43°24' E 004°59'0 0.0
2018-Feb-12 23:30N 43°24' E 004°59'0 0.0
2018-Feb-12 23:00N 43°24' E 004°59'0 0.0
2018-Feb-12 22:30N 43°24' E 004°59'0 0.0
2018-Feb-12 21:59N 43°24' E 004°59'0 0.0
2018-Feb-12 21:30N 43°24' E 004°59'0 0.0
2018-Feb-12 21:00N 43°24' E 004°59'0 0.0
2018-Feb-12 20:30N 43°24' E 004°59'0 0.0
2018-Feb-12 20:00N 43°24' E 004°59'0 0.0
2018-Feb-12 19:30N 43°24' E 004°59'0 0.0
2018-Feb-12 18:57N 43°24' E 004°59'0 0.0
2018-Feb-12 18:30N 43°24' E 004°59'0 0.0
2018-Feb-12 18:00N 43°24' E 004°59'0 0.0
2018-Feb-12 17:30N 43°24' E 004°59'0 0.0
2018-Feb-12 17:00N 43°24' E 004°59'0 0.0
2018-Feb-12 16:30N 43°24' E 004°59'0 0.0
2018-Feb-12 16:00N 43°24' E 004°59'0 0.0
2018-Feb-12 15:30N 43°24' E 004°59'0 0.0
2018-Feb-12 15:00N 43°24' E 004°59'0 0.0
2018-Feb-12 14:30N 43°24' E 004°59'0 0.0
2018-Feb-12 14:00N 43°24' E 004°59'0 0.0
2018-Feb-12 13:30N 43°24' E 004°59'0 0.0
2018-Feb-12 13:00N 43°24' E 004°59'0 0.0
2018-Feb-12 12:30N 43°24' E 004°59'0 0.0
2018-Feb-12 12:00N 43°24' E 004°59'0 0.0
2018-Feb-12 11:30N 43°24' E 004°59'0 0.0
2018-Feb-12 11:00N 43°24' E 004°59'0 0.0
2018-Feb-12 10:30N 43°24' E 004°59'0 0.0
2018-Feb-12 10:00N 43°24' E 004°59'0 0.0
2018-Feb-12 09:30N 43°24' E 004°59'0 0.0
2018-Feb-12 09:00N 43°24' E 004°59'0 0.0
2018-Feb-12 08:30N 43°24' E 004°59'0 0.0
2018-Feb-12 08:00N 43°24' E 004°59'0 0.0
2018-Feb-12 07:30N 43°24' E 004°59'0 0.0
2018-Feb-12 07:00N 43°24' E 004°59'0 0.0
2018-Feb-12 06:30N 43°24' E 004°59'0 0.0
2018-Feb-12 06:00N 43°24' E 004°59'0 0.0
2018-Feb-12 05:30N 43°24' E 004°59'0 0.0
2018-Feb-12 05:00N 43°24' E 004°59'0 0.0
2018-Feb-12 04:30N 43°24' E 004°59'0 0.0
2018-Feb-12 04:00N 43°24' E 004°59'0 0.0
2018-Feb-12 03:30N 43°24' E 004°59'0 0.0
2018-Feb-12 03:00N 43°24' E 004°59'0 0.0
2018-Feb-12 02:30N 43°24' E 004°59'0 0.0
2018-Feb-12 01:59N 43°24' E 004°59'0 0.0
2018-Feb-12 01:30N 43°24' E 004°59'0 0.0
2018-Feb-12 00:58N 43°24' E 004°59'0 0.0
2018-Feb-12 00:30N 43°24' E 004°59'0 0.0
2018-Feb-12 00:00N 43°24' E 004°59'0 0.0
2018-Feb-11 23:30N 43°24' E 004°59'0 0.0
2018-Feb-11 23:00N 43°24' E 004°59'0 0.0
2018-Feb-11 22:30N 43°24' E 004°59'0 0.0
2018-Feb-11 22:00N 43°24' E 004°59'0 0.0
2018-Feb-11 21:30N 43°24' E 004°59'0 0.0
2018-Feb-11 21:00N 43°24' E 004°59'0 0.0
2018-Feb-11 20:30N 43°24' E 004°59'0 0.0
2018-Feb-11 20:00N 43°24' E 004°59'0 0.0
2018-Feb-11 19:30N 43°24' E 004°59'0 0.0
2018-Feb-11 19:00N 43°24' E 004°59'0 0.0
2018-Feb-11 18:30N 43°24' E 004°59'0 0.0
2018-Feb-11 17:59N 43°24' E 004°59'0 0.0
2018-Feb-11 17:30N 43°24' E 004°59'0 0.0
2018-Feb-11 17:00N 43°24' E 004°59'0 0.0
2018-Feb-11 16:30N 43°24' E 004°59'0 0.0
2018-Feb-11 16:00N 43°24' E 004°59'0 0.0
2018-Feb-11 15:30N 43°24' E 004°59'0 0.0
2018-Feb-11 15:00N 43°24' E 004°59'0 0.0
2018-Feb-11 14:30N 43°24' E 004°59'0 0.0
2018-Feb-11 14:00N 43°24' E 004°59'0 0.0
2018-Feb-11 13:30N 43°24' E 004°59'0 0.0
2018-Feb-11 13:00N 43°24' E 004°59'0 0.0
2018-Feb-11 12:30N 43°24' E 004°59'0 0.0
2018-Feb-11 12:00N 43°24' E 004°59'0 0.0
2018-Feb-11 11:30N 43°24' E 004°59'0 0.0
2018-Feb-11 11:00N 43°24' E 004°59'0 0.0
2018-Feb-11 10:30N 43°24' E 004°59'0 0.0
2018-Feb-11 09:59N 43°24' E 004°59'0 0.0
2018-Feb-11 09:30N 43°24' E 004°59'0 0.0
2018-Feb-11 08:59N 43°24' E 004°59'0 0.0
2018-Feb-11 08:30N 43°24' E 004°59'0 0.0
2018-Feb-11 08:00N 43°24' E 004°59'0 0.0
2018-Feb-11 07:30N 43°24' E 004°59'0 0.0
2018-Feb-11 07:00N 43°24' E 004°59'0 0.0
2018-Feb-11 06:30N 43°24' E 004°59'0 0.0
2018-Feb-11 06:00N 43°24' E 004°59'0 0.0
2018-Feb-11 05:30N 43°24' E 004°59'0 0.0
2018-Feb-11 05:00N 43°24' E 004°59'0 0.0
2018-Feb-11 04:30N 43°24' E 004°59'0 0.0
2018-Feb-11 04:00N 43°24' E 004°59'0 0.0
2018-Feb-11 03:30N 43°24' E 004°59'0 0.0
2018-Feb-11 03:00N 43°24' E 004°59'0 0.0
2018-Feb-11 02:30N 43°24' E 004°59'0 0.0
2018-Feb-11 02:00N 43°24' E 004°59'0 0.0
2018-Feb-11 01:29N 43°24' E 004°59'0 0.0
2018-Feb-11 01:00N 43°24' E 004°59'0 0.0
2018-Feb-11 00:30N 43°24' E 004°59'0 0.0
2018-Feb-11 00:00N 43°24' E 004°59'0 0.0
2018-Feb-10 23:30N 43°24' E 004°59'0 0.0
2018-Feb-10 23:00N 43°24' E 004°59'0 0.0
2018-Feb-10 22:30N 43°24' E 004°59'0 0.0
2018-Feb-10 22:00N 43°24' E 004°59'0 0.0
2018-Feb-10 21:30N 43°24' E 004°59'0 0.0
2018-Feb-10 21:00N 43°24' E 004°59'0 0.0
2018-Feb-10 20:30N 43°24' E 004°59'0 0.0
2018-Feb-10 20:00N 43°24' E 004°59'0 0.0
2018-Feb-10 19:30N 43°24' E 004°59'0 0.0
2018-Feb-10 18:59N 43°24' E 004°59'0 0.0
2018-Feb-10 18:30N 43°24' E 004°59'0 0.0
2018-Feb-10 18:00N 43°24' E 004°59'0 0.0
2018-Feb-10 17:30N 43°24' E 004°59'0 0.0
2018-Feb-10 17:00N 43°24' E 004°59'0 0.0
2018-Feb-10 16:30N 43°24' E 004°59'0 0.0
2018-Feb-10 16:00N 43°24' E 004°59'0 0.0
2018-Feb-10 15:30N 43°24' E 004°59'0 0.0
2018-Feb-10 15:00N 43°24' E 004°59'0 0.0
2018-Feb-10 14:30N 43°24' E 004°59'0 0.0
2018-Feb-10 14:00N 43°24' E 004°59'0 0.0
2018-Feb-10 13:30N 43°24' E 004°59'0 0.0
2018-Feb-10 13:00N 43°24' E 004°59'0 0.0
2018-Feb-10 12:30N 43°24' E 004°59'0 0.0
2018-Feb-10 12:00N 43°24' E 004°59'0 0.0
2018-Feb-10 11:30N 43°24' E 004°59'0 0.0
2018-Feb-10 11:00N 43°24' E 004°59'0 0.0
2018-Feb-10 10:30N 43°24' E 004°59'0 0.0
2018-Feb-10 10:00N 43°24' E 004°59'0 0.0
2018-Feb-10 09:30N 43°24' E 004°59'0 0.0
2018-Feb-10 09:00N 43°24' E 004°59'0 0.0
2018-Feb-10 08:30N 43°24' E 004°59'0 0.0
2018-Feb-10 08:00N 43°24' E 004°59'0 0.0
2018-Feb-10 07:30N 43°24' E 004°59'0 0.0
2018-Feb-10 07:00N 43°24' E 004°59'0 0.0
2018-Feb-10 06:30N 43°24' E 004°59'0 0.0
2018-Feb-10 06:00N 43°24' E 004°59'0 0.0
2018-Feb-10 05:30N 43°24' E 004°59'0 0.0
2018-Feb-10 05:00N 43°24' E 004°59'0 0.0
2018-Feb-10 04:30N 43°24' E 004°59'0 0.0
2018-Feb-10 03:58N 43°24' E 004°59'0 0.0
2018-Feb-10 03:30N 43°24' E 004°59'0 0.0
2018-Feb-10 03:00N 43°24' E 004°59'0 0.0
2018-Feb-10 02:30N 43°24' E 004°59'0 0.0
2018-Feb-10 02:00N 43°24' E 004°59'0 0.0
2018-Feb-10 01:30N 43°24' E 004°59'0 0.0
2018-Feb-10 01:00N 43°24' E 004°59'0 0.0
2018-Feb-10 00:30N 43°24' E 004°59'0 0.0
2018-Feb-10 00:00N 43°24' E 004°59'0 0.0
2018-Feb-09 23:30N 43°24' E 004°59'0 0.0
2018-Feb-09 23:00N 43°24' E 004°59'0 0.0
2018-Feb-09 22:45N 43°24' E 004°59'0 0.0
2018-Feb-09 22:00N 43°24' E 004°59'0 0.0
2018-Feb-09 21:30N 43°24' E 004°59'0 0.0
2018-Feb-09 21:00N 43°24' E 004°59'0 0.0
2018-Feb-09 20:30N 43°24' E 004°59'0 0.0
2018-Feb-09 20:00N 43°24' E 004°59'45 3.6
2018-Feb-09 07:30N 43°06' E 005°55'1 0.8
2018-Feb-09 06:30N 43°07' E 005°54'44 6.8
2018-Feb-09 00:00N 43°24' E 004°59'0 0.0
2018-Feb-08 22:30N 43°24' E 004°59'0 0.0
2018-Feb-08 21:30N 43°24' E 004°59'0 0.0
2018-Feb-08 20:00N 43°24' E 004°59'0 0.0
2018-Feb-08 19:30N 43°24' E 004°59'0 0.0
2018-Feb-08 19:00N 43°24' E 004°59'0 0.0
2018-Feb-08 18:30N 43°24' E 004°59'0 0.0
2018-Feb-08 16:30N 43°24' E 004°59'0 0.0
2018-Feb-08 14:00N 43°24' E 004°59'0 0.0
2018-Feb-08 13:30N 43°24' E 004°59'0 0.0
2018-Feb-08 12:00N 43°24' E 004°59'0 0.0
2018-Feb-08 10:00N 43°24' E 004°59'0 0.0
2018-Feb-08 09:00N 43°24' E 004°59'0 0.0
2018-Feb-08 08:00N 43°24' E 004°59'0 0.0
2018-Feb-08 07:30N 43°24' E 004°59'0 0.0
2018-Feb-08 06:00N 43°24' E 004°59'0 0.0
2018-Feb-08 05:30N 43°24' E 004°59'0 0.0
2018-Feb-08 05:00N 43°24' E 004°59'0 0.0
2018-Feb-08 04:00N 43°24' E 004°59'0 0.0
2018-Feb-08 03:00N 43°24' E 004°59'0 0.0
2018-Feb-08 02:30N 43°24' E 004°59'0 0.0
2018-Feb-08 01:30N 43°24' E 004°59'0 0.0
2018-Feb-08 00:59N 43°24' E 004°59'0 0.0
2018-Feb-08 00:30N 43°24' E 004°59'0 0.0
2018-Feb-08 00:00N 43°24' E 004°59'0 0.0
2018-Feb-07 23:30N 43°24' E 004°59'0 0.0
2018-Feb-07 23:00N 43°24' E 004°59'0 0.0
2018-Feb-07 22:30N 43°24' E 004°59'0 0.0
2018-Feb-07 22:00N 43°24' E 004°59'0 0.0
2018-Feb-07 21:31N 43°24' E 004°59'0 0.0
2018-Feb-07 09:30N 43°24' E 004°59'0 0.0
2018-Feb-07 09:00N 43°24' E 004°59'0 0.0
2018-Feb-07 08:30N 43°24' E 004°59'0 0.0
2018-Feb-07 08:00N 43°24' E 004°59'0 0.0
2018-Feb-07 07:30N 43°24' E 004°59'0 0.0
2018-Feb-07 06:59N 43°24' E 004°59'0 0.0
2018-Feb-07 06:30N 43°24' E 004°59'0 0.0
2018-Feb-07 06:00N 43°24' E 004°59'0 0.0
2018-Feb-07 05:30N 43°24' E 004°59'0 0.0
2018-Feb-07 05:00N 43°24' E 004°59'0 0.0
2018-Feb-07 04:29N 43°24' E 004°59'0 0.0
2018-Feb-07 04:00N 43°24' E 004°59'0 0.0
2018-Feb-07 03:30N 43°24' E 004°59'0 0.0
2018-Feb-07 03:00N 43°24' E 004°59'0 0.0
2018-Feb-07 02:30N 43°24' E 004°59'0 0.0
2018-Feb-07 02:00N 43°24' E 004°59'0 0.0
2018-Feb-07 01:30N 43°24' E 004°59'0 0.0
2018-Feb-07 01:00N 43°24' E 004°59'0 0.0
2018-Feb-07 00:30N 43°24' E 004°59'0 0.0
2018-Feb-07 00:00N 43°24' E 004°59'0 0.0
2018-Feb-06 23:30N 43°24' E 004°59'0 0.0
2018-Feb-06 23:00N 43°24' E 004°59'0 0.0
2018-Feb-06 22:30N 43°24' E 004°59'0 0.0
2018-Feb-06 22:00N 43°24' E 004°59'0 0.0
2018-Feb-06 21:30N 43°24' E 004°59'0 0.0
2018-Feb-06 21:00N 43°24' E 004°59'0 0.0
2018-Feb-06 20:30N 43°24' E 004°59'0 0.0
2018-Feb-06 19:59N 43°24' E 004°59'0 0.0
2018-Feb-06 19:30N 43°24' E 004°59'0 0.0
2018-Feb-06 18:59N 43°24' E 004°59'0 0.0
2018-Feb-06 18:30N 43°24' E 004°59'0 0.0
2018-Feb-06 18:00N 43°24' E 004°59'0 0.0
2018-Feb-06 17:30N 43°24' E 004°59'0 0.0
2018-Feb-06 17:00N 43°24' E 004°59'0 0.0
2018-Feb-06 16:30N 43°24' E 004°59'0 0.0
2018-Feb-06 16:00N 43°24' E 004°59'0 0.0
2018-Feb-06 15:30N 43°24' E 004°59'0 0.0
2018-Feb-06 15:00N 43°24' E 004°59'0 0.0
2018-Feb-06 14:30N 43°24' E 004°59'0 0.0
2018-Feb-06 14:00N 43°24' E 004°59'0 0.0
2018-Feb-06 13:30N 43°24' E 004°59'0 0.0
2018-Feb-06 13:00N 43°24' E 004°59'0 0.0
2018-Feb-06 12:30N 43°24' E 004°59'0 0.0
2018-Feb-06 11:59N 43°24' E 004°59'0 0.0
2018-Feb-06 11:30N 43°24' E 004°59'0 0.0
2018-Feb-06 11:00N 43°24' E 004°59'0 0.0
2018-Feb-06 10:29N 43°24' E 004°59'0 0.0
2018-Feb-06 10:00N 43°24' E 004°59'0 0.0
2018-Feb-06 09:30N 43°24' E 004°59'0 0.0
2018-Feb-06 09:00N 43°24' E 004°59'0 0.0
2018-Feb-06 08:30N 43°24' E 004°59'0 0.0
2018-Feb-06 08:00N 43°24' E 004°59'0 0.0
2018-Feb-06 07:29N 43°24' E 004°59'0 0.0
2018-Feb-06 07:00N 43°24' E 004°59'0 0.0
2018-Feb-06 06:30N 43°24' E 004°59'0 0.0
2018-Feb-06 06:00N 43°24' E 004°59'0 0.0
2018-Feb-06 05:30N 43°24' E 004°59'0 0.0
2018-Feb-06 05:00N 43°24' E 004°59'0 0.0
2018-Feb-06 04:30N 43°24' E 004°59'0 0.0
2018-Feb-06 04:00N 43°24' E 004°59'0 0.0
2018-Feb-06 03:30N 43°24' E 004°59'0 0.0
2018-Feb-06 03:00N 43°24' E 004°59'0 0.0
2018-Feb-06 02:30N 43°24' E 004°59'0 0.0
2018-Feb-06 02:00N 43°24' E 004°59'0 0.0
2018-Feb-06 01:30N 43°24' E 004°59'0 0.0
2018-Feb-06 01:00N 43°24' E 004°59'0 0.0
2018-Feb-06 00:30N 43°24' E 004°59'0 0.0
2018-Feb-06 00:00N 43°24' E 004°59'0 0.0
2018-Feb-05 23:30N 43°24' E 004°59'0 0.0
2018-Feb-05 23:00N 43°24' E 004°59'0 0.0
2018-Feb-05 22:30N 43°24' E 004°59'0 0.0
2018-Feb-05 22:00N 43°24' E 004°59'0 0.0
2018-Feb-05 21:30N 43°24' E 004°59'0 0.0
2018-Feb-05 21:00N 43°24' E 004°59'0 0.0
2018-Feb-05 20:30N 43°24' E 004°59'0 0.0
2018-Feb-05 20:00N 43°24' E 004°59'0 0.0
2018-Feb-05 19:30N 43°24' E 004°59'0 0.0
2018-Feb-05 19:00N 43°24' E 004°59'0 0.0
2018-Feb-05 18:30N 43°24' E 004°59'0 0.0
2018-Feb-05 18:00N 43°24' E 004°59'0 0.0
2018-Feb-05 17:30N 43°24' E 004°59'0 0.0
2018-Feb-05 17:00N 43°24' E 004°59'0 0.0
2018-Feb-05 16:30N 43°24' E 004°59'0 0.0
2018-Feb-05 16:00N 43°24' E 004°59'0 0.0
2018-Feb-05 15:30N 43°24' E 004°59'0 0.0
2018-Feb-05 15:00N 43°24' E 004°59'0 0.0
2018-Feb-05 14:30N 43°24' E 004°59'0 0.0
2018-Feb-05 14:00N 43°24' E 004°59'0 0.0
2018-Feb-05 13:30N 43°24' E 004°59'0 0.0
2018-Feb-05 13:00N 43°24' E 004°59'0 0.0
2018-Feb-05 12:30N 43°24' E 004°59'0 0.0
2018-Feb-05 12:00N 43°24' E 004°59'0 0.0
2018-Feb-05 11:30N 43°24' E 004°59'0 0.0
2018-Feb-05 11:00N 43°24' E 004°59'0 0.0
2018-Feb-05 10:30N 43°24' E 004°59'0 0.0
2018-Feb-05 10:00N 43°24' E 004°59'0 0.0
2018-Feb-05 09:30N 43°24' E 004°59'0 0.0
2018-Feb-05 09:00N 43°24' E 004°59'0 0.0
2018-Feb-05 08:30N 43°24' E 004°59'0 0.0
2018-Feb-05 08:00N 43°24' E 004°59'0 0.0
2018-Feb-05 07:30N 43°24' E 004°59'0 0.0
2018-Feb-05 06:59N 43°24' E 004°59'0 0.0
2018-Feb-05 06:30N 43°24' E 004°59'0 0.0
2018-Feb-05 05:30N 43°24' E 004°59'0 0.0
2018-Feb-05 05:00N 43°24' E 004°59'0 0.0
2018-Feb-05 04:30N 43°24' E 004°59'0 0.0
2018-Feb-05 04:00N 43°24' E 004°59'0 0.0
2018-Feb-05 03:30N 43°24' E 004°59'0 0.0
2018-Feb-05 03:00N 43°24' E 004°59'0 0.0
2018-Feb-05 02:30N 43°24' E 004°59'0 0.0
2018-Feb-05 02:00N 43°24' E 004°59'0 0.0
2018-Feb-05 01:30N 43°24' E 004°59'0 0.0
2018-Feb-05 01:00N 43°24' E 004°59'5 7.7
2018-Feb-05 00:22N 43°25' E 004°53'2 2.1
2018-Feb-04 23:23N 43°27' E 004°51'1 2.0
2018-Feb-04 22:57N 43°26' E 004°52'2 2.9
2018-Feb-04 22:06N 43°24' E 004°54'0 4.2
2018-Feb-04 22:00N 43°24' E 004°54'2 4.2
2018-Feb-04 21:30N 43°23' E 004°57'2 4.0
2018-Feb-04 21:00N 43°22' E 004°59'4 0.3
2018-Feb-04 05:26N 43°19' E 005°03'4 9.9
2018-Feb-04 05:00N 43°22' E 004°60'2 4.0
2018-Feb-04 04:30N 43°24' E 004°59'0 0.0
2018-Feb-04 04:00N 43°24' E 004°59'0 0.0
2018-Feb-04 03:30N 43°24' E 004°59'0 0.0
2018-Feb-04 03:00N 43°24' E 004°59'0 0.0
2018-Feb-04 02:30N 43°24' E 004°59'0 0.0
2018-Feb-04 01:59N 43°24' E 004°59'0 0.0
2018-Feb-04 01:30N 43°24' E 004°59'0 0.0
2018-Feb-04 01:00N 43°24' E 004°59'0 0.0
2018-Feb-04 00:30N 43°24' E 004°59'0 0.0
2018-Feb-04 00:00N 43°24' E 004°59'0 0.0
2018-Feb-03 23:30N 43°24' E 004°59'0 0.0
2018-Feb-03 23:00N 43°24' E 004°59'0 0.0
2018-Feb-03 22:30N 43°24' E 004°59'0 0.0
2018-Feb-03 22:00N 43°24' E 004°59'0 0.0
2018-Feb-03 21:30N 43°24' E 004°59'0 0.0
2018-Feb-03 21:00N 43°24' E 004°59'0 0.0
2018-Feb-03 20:30N 43°24' E 004°59'0 0.0
2018-Feb-03 20:00N 43°24' E 004°59'0 0.0
2018-Feb-03 18:30N 43°24' E 004°59'0 0.0
2018-Feb-03 18:00N 43°24' E 004°59'0 0.0
2018-Feb-03 17:30N 43°24' E 004°59'0 0.0
2018-Feb-03 17:00N 43°24' E 004°59'  

Dump ship's entire track history